Time;durP1;ratioP1;P1;durP2;ratioP2;P2;SDS_P1;SDS_P2;PMS_P1;PMS_P2;Temp;Humidity;BMP_temperature;BMP_pressure;BME280_temperature;BME280_humidity;BME280_pressure;Samples;Min_cycle;Max_cycle;Signal;HPM_P1;HPM_P2
2022/06/18 00:01:34;;;;;;;3.47;1.20;;;;;;;;;;5007900;28;20148;-86
2022/06/18 00:04:04;;;;;;;1.77;0.90;;;;;;;;;;5008701;28;20097;-85
2022/06/18 00:06:32;;;;;;;2.72;1.30;;;;;;;;;;5034102;28;20043;-86
2022/06/18 00:08:58;;;;;;;3.13;1.50;;;;;;;;;;5009993;28;20047;-85
2022/06/18 00:14:09;;;;;;;2.28;1.20;;;;;;;;;;5021163;28;20532;-85
2022/06/18 00:16:35;;;;;;;2.65;1.20;;;;;;;;;;5016312;28;20041;-86
2022/06/18 00:19:00;;;;;;;2.20;1.15;;;;;;;;;;5020486;28;20075;-85
2022/06/18 00:21:26;;;;;;;2.38;1.08;;;;;;;;;;5015367;28;20030;-85
2022/06/18 00:23:51;;;;;;;2.00;1.05;;;;;;;;;;5016975;28;20041;-86
2022/06/18 00:26:17;;;;;;;2.42;1.40;;;;;;;;;;5022557;28;20052;-85
2022/06/18 00:28:43;;;;;;;2.90;1.42;;;;;;;;;;5017766;28;20121;-85
2022/06/18 00:31:08;;;;;;;2.45;1.30;;;;;;;;;;5030109;28;20036;-85
2022/06/18 00:33:40;;;;;;;2.55;1.20;;;;;;;;;;5023255;28;20107;-84
2022/06/18 00:36:09;;;;;;;2.35;1.25;;;;;;;;;;5009898;28;20057;-85
2022/06/18 00:38:38;;;;;;;2.45;1.23;;;;;;;;;;5027425;28;20397;-85
2022/06/18 00:41:04;;;;;;;2.70;1.20;;;;;;;;;;5021656;28;20052;-85
2022/06/18 00:44:00;;;;;;;3.55;1.23;;;;;;;;;;5010715;28;20036;-85
2022/06/18 00:46:45;;;;;;;2.80;1.13;;;;;;;;;;5005464;28;20111;-84
2022/06/18 00:49:35;;;;;;;2.28;1.10;;;;;;;;;;5022272;28;20396;-84
2022/06/18 00:52:21;;;;;;;2.50;1.15;;;;;;;;;;5008183;28;20162;-85
2022/06/18 00:54:52;;;;;;;3.03;1.50;;;;;;;;;;5004178;28;20025;-85
2022/06/18 00:57:31;;;;;;;3.35;1.50;;;;;;;;;;5022980;28;20037;-85
2022/06/18 01:00:07;;;;;;;4.05;1.48;;;;;;;;;;5013789;28;20159;-85
2022/06/18 01:02:39;;;;;;;2.58;1.33;;;;;;;;;;5010295;28;20049;-85
2022/06/18 01:05:17;;;;;;;2.63;1.40;;;;;;;;;;5004728;28;20400;-85
2022/06/18 01:07:45;;;;;;;2.95;1.40;;;;;;;;;;5038018;28;20041;-84
2022/06/18 01:10:25;;;;;;;2.50;1.38;;;;;;;;;;5011492;28;20029;-84
2022/06/18 01:12:50;;;;;;;2.28;1.20;;;;;;;;;;5028322;28;20395;-85
2022/06/18 01:15:20;;;;;;;2.33;1.20;;;;;;;;;;5011353;28;20033;-85
2022/06/18 01:17:51;;;;;;;3.50;1.58;;;;;;;;;;5008939;28;20045;-85
2022/06/18 01:20:17;;;;;;;2.33;1.20;;;;;;;;;;5002425;28;20038;-85
2022/06/18 01:22:54;;;;;;;3.67;1.40;;;;;;;;;;4989686;28;20041;-84
2022/06/18 01:25:22;;;;;;;2.50;1.30;;;;;;;;;;5013660;28;20488;-86
2022/06/18 01:27:47;;;;;;;2.67;1.48;;;;;;;;;;5033627;28;20490;-85
2022/06/18 01:30:16;;;;;;;2.60;1.40;;;;;;;;;;4995920;28;20032;-85
2022/06/18 01:32:42;;;;;;;2.58;1.33;;;;;;;;;;4993310;28;20041;-84
2022/06/18 01:35:08;;;;;;;2.10;1.20;;;;;;;;;;5025763;28;20742;-85
2022/06/18 01:37:35;;;;;;;2.65;1.50;;;;;;;;;;5004588;28;20034;-84
2022/06/18 01:40:01;;;;;;;2.55;1.10;;;;;;;;;;5017812;28;20033;-83
2022/06/18 01:42:30;;;;;;;2.60;1.40;;;;;;;;;;5014977;28;20068;-84
2022/06/18 01:45:03;;;;;;;3.03;1.50;;;;;;;;;;5021189;28;20047;-84
2022/06/18 01:47:47;;;;;;;2.75;1.52;;;;;;;;;;5011456;28;20456;-84
2022/06/18 01:50:29;;;;;;;3.22;1.40;;;;;;;;;;5036081;28;20033;-84
2022/06/18 01:53:13;;;;;;;4.05;1.77;;;;;;;;;;5019500;28;20033;-85
2022/06/18 01:55:50;;;;;;;3.10;1.60;;;;;;;;;;5005119;28;20043;-85
2022/06/18 01:58:19;;;;;;;4.97;1.60;;;;;;;;;;5004785;28;20029;-85
2022/06/18 02:00:49;;;;;;;2.53;1.38;;;;;;;;;;5011581;28;20037;-85
2022/06/18 02:03:15;;;;;;;2.80;1.55;;;;;;;;;;5010362;28;20830;-85
2022/06/18 02:05:40;;;;;;;2.97;1.50;;;;;;;;;;5015975;28;20037;-85
2022/06/18 02:08:08;;;;;;;2.65;1.40;;;;;;;;;;5021875;28;20037;-84
2022/06/18 02:10:40;;;;;;;2.92;1.50;;;;;;;;;;5002174;28;20060;-84
2022/06/18 02:13:07;;;;;;;3.03;1.40;;;;;;;;;;5019866;28;20449;-85
2022/06/18 02:15:35;;;;;;;2.53;1.30;;;;;;;;;;5009418;28;20029;-85
2022/06/18 02:18:05;;;;;;;2.50;1.33;;;;;;;;;;5020738;28;20535;-85
2022/06/18 02:20:39;;;;;;;2.33;1.27;;;;;;;;;;5020764;28;21161;-86
2022/06/18 02:23:04;;;;;;;3.30;1.50;;;;;;;;;;5006890;28;20485;-85
2022/06/18 02:25:31;;;;;;;2.90;1.40;;;;;;;;;;5019905;28;20038;-85
2022/06/18 02:28:01;;;;;;;4.82;1.50;;;;;;;;;;5017786;28;20060;-84
2022/06/18 02:30:29;;;;;;;3.42;1.58;;;;;;;;;;5020949;28;20037;-86
2022/06/18 02:32:59;;;;;;;2.67;1.27;;;;;;;;;;5016242;28;20024;-85
2022/06/18 02:35:27;;;;;;;3.58;1.50;;;;;;;;;;5005400;28;20574;-85
2022/06/18 02:37:54;;;;;;;2.72;1.33;;;;;;;;;;5004092;28;20081;-85
2022/06/18 02:40:26;;;;;;;2.35;1.23;;;;;;;;;;5004770;28;20366;-85
2022/06/18 02:42:56;;;;;;;2.88;1.38;;;;;;;;;;5023636;28;20045;-85
2022/06/18 02:45:23;;;;;;;2.03;1.13;;;;;;;;;;5012652;28;20148;-85
2022/06/18 02:47:50;;;;;;;2.58;1.38;;;;;;;;;;5012988;28;20042;-85
2022/06/18 02:50:17;;;;;;;2.72;1.48;;;;;;;;;;5007656;28;20413;-84
2022/06/18 02:52:46;;;;;;;2.30;1.27;;;;;;;;;;5002580;28;20040;-85
2022/06/18 02:55:20;;;;;;;3.50;1.50;;;;;;;;;;5010065;28;20029;-85
2022/06/18 02:57:48;;;;;;;2.75;1.40;;;;;;;;;;5026256;28;20055;-85
2022/06/18 03:00:14;;;;;;;2.42;1.45;;;;;;;;;;5019161;28;20033;-85
2022/06/18 03:02:39;;;;;;;2.38;1.40;;;;;;;;;;5009196;28;20046;-85
2022/06/18 03:05:05;;;;;;;2.10;1.08;;;;;;;;;;5014331;28;20163;-85
2022/06/18 03:07:30;;;;;;;3.08;1.60;;;;;;;;;;5021507;28;20130;-85
2022/06/18 03:12:40;;;;;;;2.30;1.23;;;;;;;;;;5022471;28;20036;-86
2022/06/18 03:15:05;;;;;;;2.15;1.20;;;;;;;;;;5007908;28;20033;-85
2022/06/18 03:17:31;;;;;;;2.22;1.30;;;;;;;;;;5021937;28;20059;-86
2022/06/18 03:20:01;;;;;;;2.58;1.27;;;;;;;;;;5019960;28;20105;-86
2022/06/18 03:22:26;;;;;;;2.55;1.10;;;;;;;;;;5016442;28;20038;-85
2022/06/18 03:24:51;;;;;;;2.97;1.35;;;;;;;;;;5010447;28;20068;-85
2022/06/18 03:27:17;;;;;;;2.75;1.23;;;;;;;;;;5003892;28;20082;-85
2022/06/18 03:29:44;;;;;;;2.47;1.42;;;;;;;;;;5014886;28;20035;-86
2022/06/18 03:32:09;;;;;;;2.40;1.35;;;;;;;;;;5002228;28;20045;-86
2022/06/18 03:34:35;;;;;;;2.88;1.45;;;;;;;;;;5026864;28;20388;-85
2022/06/18 03:37:00;;;;;;;2.45;1.15;;;;;;;;;;5024610;28;20116;-86
2022/06/18 03:39:26;;;;;;;3.85;1.40;;;;;;;;;;5009068;28;20152;-86
2022/06/18 03:41:52;;;;;;;2.63;1.40;;;;;;;;;;5018065;28;20072;-86
2022/06/18 03:44:17;;;;;;;2.47;1.10;;;;;;;;;;5006828;28;20092;-85
2022/06/18 03:46:43;;;;;;;3.13;1.20;;;;;;;;;;5007799;28;20060;-86
2022/06/18 03:49:11;;;;;;;2.40;1.20;;;;;;;;;;5014402;28;20041;-85
2022/06/18 03:51:37;;;;;;;2.85;1.40;;;;;;;;;;5024734;28;20048;-85
2022/06/18 03:54:03;;;;;;;2.65;1.23;;;;;;;;;;5025560;28;20481;-85
2022/06/18 03:56:30;;;;;;;2.72;1.05;;;;;;;;;;5024733;28;20045;-85
2022/06/18 03:58:56;;;;;;;2.00;1.05;;;;;;;;;;4993129;28;20124;-85
2022/06/18 04:01:28;;;;;;;2.75;1.20;;;;;;;;;;5003153;28;20120;-85
2022/06/18 04:03:54;;;;;;;2.42;1.23;;;;;;;;;;5019376;28;20026;-85
2022/06/18 04:06:19;;;;;;;3.65;1.27;;;;;;;;;;4992949;28;20091;-85
2022/06/18 04:08:45;;;;;;;2.22;1.10;;;;;;;;;;4997412;28;20048;-85
2022/06/18 04:11:11;;;;;;;2.45;1.00;;;;;;;;;;5014794;28;20030;-85
2022/06/18 04:13:38;;;;;;;1.88;1.20;;;;;;;;;;5001729;28;20184;-85
2022/06/18 04:16:04;;;;;;;2.40;1.20;;;;;;;;;;5005407;28;20153;-86
2022/06/18 04:18:30;;;;;;;2.08;1.00;;;;;;;;;;5016771;28;20057;-86
2022/06/18 04:20:56;;;;;;;2.28;1.05;;;;;;;;;;5014775;28;20060;-86
2022/06/18 04:23:21;;;;;;;2.40;1.10;;;;;;;;;;5006249;28;20042;-87
2022/06/18 04:25:50;;;;;;;2.17;1.20;;;;;;;;;;4995966;28;20037;-86
2022/06/18 04:28:17;;;;;;;2.40;0.90;;;;;;;;;;5018287;28;20485;-84
2022/06/18 04:30:42;;;;;;;2.70;1.08;;;;;;;;;;5018638;28;20096;-85
2022/06/18 04:33:08;;;;;;;2.97;1.13;;;;;;;;;;5002472;28;20034;-84
2022/06/18 04:35:33;;;;;;;2.33;0.85;;;;;;;;;;5016665;28;20033;-85
2022/06/18 04:37:59;;;;;;;2.78;1.15;;;;;;;;;;5009114;28;20069;-85
2022/06/18 04:40:31;;;;;;;1.45;0.80;;;;;;;;;;5016404;28;20072;-84
2022/06/18 04:42:59;;;;;;;1.75;1.00;;;;;;;;;;4997953;28;20042;-85
2022/06/18 04:45:24;;;;;;;1.90;0.90;;;;;;;;;;5015221;28;20045;-85
2022/06/18 04:47:50;;;;;;;1.73;0.93;;;;;;;;;;5016119;28;20086;-87
2022/06/18 04:50:18;;;;;;;1.80;0.88;;;;;;;;;;5006515;28;20115;-87
2022/06/18 04:52:43;;;;;;;1.90;0.80;;;;;;;;;;4998704;28;20096;-87
2022/06/18 04:55:09;;;;;;;2.45;1.25;;;;;;;;;;5017040;28;20505;-86
2022/06/18 04:57:34;;;;;;;1.92;0.80;;;;;;;;;;5014074;28;20505;-85
2022/06/18 05:00:00;;;;;;;1.75;0.80;;;;;;;;;;5016218;28;20083;-81
2022/06/18 05:02:29;;;;;;;2.05;0.73;;;;;;;;;;5003190;28;20938;-80
2022/06/18 05:04:54;;;;;;;1.33;0.65;;;;;;;;;;5017842;28;20034;-83
2022/06/18 05:07:20;;;;;;;4.75;0.85;;;;;;;;;;5024266;28;20116;-80
2022/06/18 05:09:45;;;;;;;1.90;0.80;;;;;;;;;;5017365;28;20505;-82
2022/06/18 05:12:12;;;;;;;1.63;0.60;;;;;;;;;;4998788;28;20030;-83
2022/06/18 05:14:38;;;;;;;1.60;0.75;;;;;;;;;;5017827;28;20038;-82
2022/06/18 05:17:05;;;;;;;1.70;0.82;;;;;;;;;;5021269;28;20789;-82
2022/06/18 05:19:33;;;;;;;1.67;0.70;;;;;;;;;;5024604;28;20045;-82
2022/06/18 05:22:00;;;;;;;1.05;0.50;;;;;;;;;;5001703;28;20042;-82
2022/06/18 05:24:25;;;;;;;1.50;0.50;;;;;;;;;;5001804;28;20034;-82
2022/06/18 05:26:53;;;;;;;2.15;0.60;;;;;;;;;;5006925;28;20108;-81
2022/06/18 05:29:18;;;;;;;2.33;1.05;;;;;;;;;;5020425;28;20043;-83
2022/06/18 05:31:44;;;;;;;1.52;0.63;;;;;;;;;;5019927;28;20046;-82
2022/06/18 05:34:09;;;;;;;2.28;0.60;;;;;;;;;;5008468;28;20065;-82
2022/06/18 05:36:35;;;;;;;1.23;0.50;;;;;;;;;;5021538;28;20038;-82
2022/06/18 05:39:01;;;;;;;1.52;0.70;;;;;;;;;;5019466;28;20029;-82
2022/06/18 05:41:30;;;;;;;1.60;0.60;;;;;;;;;;5022599;28;20042;-82
2022/06/18 05:43:56;;;;;;;1.40;0.73;;;;;;;;;;5019134;28;20036;-82
2022/06/18 05:46:22;;;;;;;2.08;0.70;;;;;;;;;;5023106;28;20744;-81
2022/06/18 05:48:47;;;;;;;1.70;0.60;;;;;;;;;;5008185;28;20037;-83
2022/06/18 05:51:12;;;;;;;2.13;0.70;;;;;;;;;;5010029;28;20062;-84
2022/06/18 05:53:38;;;;;;;2.25;1.00;;;;;;;;;;5017080;28;20048;-84
2022/06/18 05:56:04;;;;;;;1.23;0.60;;;;;;;;;;5013408;28;20489;-84
2022/06/18 05:58:29;;;;;;;1.27;0.50;;;;;;;;;;5013997;28;20065;-84
2022/06/18 06:00:56;;;;;;;1.83;0.77;;;;;;;;;;5014514;28;20064;-85
2022/06/18 06:03:22;;;;;;;1.83;0.80;;;;;;;;;;5026655;28;20049;-84
2022/06/18 06:05:47;;;;;;;2.10;0.68;;;;;;;;;;5017273;28;20033;-85
2022/06/18 06:08:14;;;;;;;2.00;0.95;;;;;;;;;;5012236;28;20497;-84
2022/06/18 06:13:24;;;;;;;1.50;0.70;;;;;;;;;;5027052;28;20060;-84
2022/06/18 06:15:51;;;;;;;1.60;0.70;;;;;;;;;;5031326;28;20029;-83
2022/06/18 06:18:18;;;;;;;2.70;1.10;;;;;;;;;;5005801;28;20029;-84
2022/06/18 06:20:46;;;;;;;1.05;0.50;;;;;;;;;;5015368;28;20041;-86
2022/06/18 06:23:13;;;;;;;1.63;0.70;;;;;;;;;;5022861;28;20047;-84
2022/06/18 06:25:39;;;;;;;1.30;0.65;;;;;;;;;;5030666;28;20041;-84
2022/06/18 06:28:13;;;;;;;1.85;0.77;;;;;;;;;;5001252;28;20030;-84
2022/06/18 06:30:38;;;;;;;1.65;0.70;;;;;;;;;;5023917;28;20109;-85
2022/06/18 06:33:04;;;;;;;2.80;1.20;;;;;;;;;;5040103;28;20452;-84
2022/06/18 06:35:30;;;;;;;2.28;0.93;;;;;;;;;;5020489;28;20044;-82
2022/06/18 06:37:55;;;;;;;1.70;0.80;;;;;;;;;;5022735;28;20397;-81
2022/06/18 06:40:21;;;;;;;2.95;1.10;;;;;;;;;;5024991;28;20037;-84
2022/06/18 06:42:50;;;;;;;2.10;0.90;;;;;;;;;;5012217;28;20098;-84
2022/06/18 06:45:22;;;;;;;2.88;1.08;;;;;;;;;;5021303;28;20049;-84
2022/06/18 06:47:48;;;;;;;2.33;1.05;;;;;;;;;;5011703;28;20036;-84
2022/06/18 06:50:16;;;;;;;2.47;1.00;;;;;;;;;;5018190;28;20379;-87
2022/06/18 06:52:42;;;;;;;2.22;1.00;;;;;;;;;;5003012;28;20037;-86
2022/06/18 06:58:06;;;;;;;3.17;1.30;;;;;;;;;;5013832;28;20044;-88
2022/06/18 07:00:38;;;;;;;2.35;1.00;;;;;;;;;;5014586;28;20037;-89
2022/06/18 07:03:04;;;;;;;2.45;1.00;;;;;;;;;;5025328;28;20033;-87
2022/06/18 07:05:29;;;;;;;3.33;1.20;;;;;;;;;;5017821;28;20458;-87
2022/06/18 07:07:55;;;;;;;3.53;1.02;;;;;;;;;;5010619;28;20071;-89
2022/06/18 07:10:21;;;;;;;1.60;0.80;;;;;;;;;;5019852;28;20033;-87
2022/06/18 07:12:46;;;;;;;2.35;1.17;;;;;;;;;;5018888;28;20148;-87
2022/06/18 07:15:17;;;;;;;2.50;1.15;;;;;;;;;;5010387;28;20108;-88
2022/06/18 07:17:42;;;;;;;3.88;1.40;;;;;;;;;;4999810;28;20030;-87
2022/06/18 07:20:19;;;;;;;3.53;1.27;;;;;;;;;;5016385;28;20033;-86
2022/06/18 07:22:45;;;;;;;2.13;1.02;;;;;;;;;;4984637;28;20034;-88
2022/06/18 07:25:12;;;;;;;2.92;1.20;;;;;;;;;;5001384;28;20438;-86
2022/06/18 07:27:38;;;;;;;2.08;1.00;;;;;;;;;;4989190;28;20042;-89
2022/06/18 07:30:08;;;;;;;1.63;0.85;;;;;;;;;;4995758;28;20045;-89
2022/06/18 07:32:35;;;;;;;2.05;0.88;;;;;;;;;;4996438;28;20044;-90
2022/06/18 07:35:00;;;;;;;1.45;0.73;;;;;;;;;;5014820;28;20041;-88
2022/06/18 07:37:28;;;;;;;1.88;0.85;;;;;;;;;;5017947;28;20029;-90
2022/06/18 07:39:53;;;;;;;2.40;0.80;;;;;;;;;;5018919;28;20036;-89
2022/06/18 07:42:20;;;;;;;1.65;0.80;;;;;;;;;;5015962;28;20489;-89
2022/06/18 07:44:45;;;;;;;2.40;0.90;;;;;;;;;;5011245;28;20038;-89
2022/06/18 07:47:16;;;;;;;1.63;0.80;;;;;;;;;;5024864;28;20030;-90
2022/06/18 07:49:43;;;;;;;2.80;1.00;;;;;;;;;;5015943;28;20393;-88
2022/06/18 07:52:08;;;;;;;1.65;0.75;;;;;;;;;;5015929;28;20041;-90
2022/06/18 07:54:34;;;;;;;1.92;0.63;;;;;;;;;;5009363;28;20047;-90
2022/06/18 07:56:59;;;;;;;2.42;0.82;;;;;;;;;;5013536;28;20523;-90
2022/06/18 07:59:25;;;;;;;1.80;0.63;;;;;;;;;;5022801;28;20460;-89
2022/06/18 08:01:53;;;;;;;4.00;0.70;;;;;;;;;;5024451;28;20047;-90
2022/06/18 08:04:21;;;;;;;1.30;0.60;;;;;;;;;;5014784;28;20032;-89
2022/06/18 08:06:47;;;;;;;1.73;0.85;;;;;;;;;;5019351;28;20484;-89
2022/06/18 08:09:12;;;;;;;1.20;0.57;;;;;;;;;;4995262;28;20063;-90
2022/06/18 08:11:38;;;;;;;1.60;0.60;;;;;;;;;;5020467;28;20157;-89
2022/06/18 08:14:03;;;;;;;1.20;0.52;;;;;;;;;;5006229;28;20129;-89
2022/06/18 08:16:29;;;;;;;1.50;0.70;;;;;;;;;;5024345;28;20128;-89
2022/06/18 08:18:54;;;;;;;3.03;0.80;;;;;;;;;;4995086;28;20034;-89
2022/06/18 08:21:24;;;;;;;1.58;0.70;;;;;;;;;;5007431;28;20405;-88
2022/06/18 08:23:53;;;;;;;5.30;0.80;;;;;;;;;;5014360;28;20481;-87
2022/06/18 08:26:19;;;;;;;1.60;0.60;;;;;;;;;;5025104;28;20033;-90
2022/06/18 08:28:44;;;;;;;1.00;0.50;;;;;;;;;;5021956;28;20033;-91
2022/06/18 08:31:10;;;;;;;1.45;0.57;;;;;;;;;;5005940;28;20044;-90
2022/06/18 08:33:36;;;;;;;1.53;0.50;;;;;;;;;;5013329;28;20440;-90
2022/06/18 08:36:03;;;;;;;1.40;0.45;;;;;;;;;;5024698;28;20038;-89
2022/06/18 08:38:29;;;;;;;1.25;0.60;;;;;;;;;;4986072;28;20044;-91
2022/06/18 08:41:13;;;;;;;1.53;0.70;;;;;;;;;;5005609;28;20037;-91
2022/06/18 08:43:53;;;;;;;1.27;0.57;;;;;;;;;;5025095;28;20064;-90
2022/06/18 08:46:34;;;;;;;1.10;0.55;;;;;;;;;;5011838;28;20552;-90
2022/06/18 08:49:14;;;;;;;1.38;0.52;;;;;;;;;;5019435;28;20076;-91
2022/06/18 08:51:42;;;;;;;1.20;0.57;;;;;;;;;;5014380;28;20124;-90
2022/06/18 08:54:17;;;;;;;1.48;0.63;;;;;;;;;;5018322;28;20045;-91
2022/06/18 08:56:50;;;;;;;2.17;0.60;;;;;;;;;;5015296;28;20037;-91
2022/06/18 08:59:28;;;;;;;2.78;0.70;;;;;;;;;;5009146;28;20040;-89
2022/06/18 09:02:03;;;;;;;1.35;0.57;;;;;;;;;;5018343;28;20041;-89
2022/06/18 09:04:47;;;;;;;1.25;0.45;;;;;;;;;;5018566;28;20056;-90
2022/06/18 09:07:24;;;;;;;1.33;0.50;;;;;;;;;;5016625;28;20038;-91
2022/06/18 09:10:25;;;;;;;2.60;0.70;;;;;;;;;;5019046;28;20485;-91
2022/06/18 09:13:18;;;;;;;1.52;0.40;;;;;;;;;;4955187;28;20068;-91
2022/06/18 09:15:47;;;;;;;0.90;0.30;;;;;;;;;;5005003;28;20497;-89
2022/06/18 09:18:26;;;;;;;1.73;0.50;;;;;;;;;;5020990;28;20457;-89
2022/06/18 09:20:56;;;;;;;1.63;0.50;;;;;;;;;;5018794;28;20038;-91
2022/06/18 09:23:42;;;;;;;1.25;0.57;;;;;;;;;;5021129;28;20485;-91
2022/06/18 09:26:11;;;;;;;1.10;0.50;;;;;;;;;;4999955;28;20037;-90
2022/06/18 09:29:01;;;;;;;1.58;0.60;;;;;;;;;;5009478;28;20037;-90
2022/06/18 09:31:36;;;;;;;2.80;0.60;;;;;;;;;;5004305;28;20708;-89
2022/06/18 09:34:13;;;;;;;1.75;0.45;;;;;;;;;;5002407;28;20040;-87
2022/06/18 09:36:43;;;;;;;1.73;0.50;;;;;;;;;;5020989;28;20514;-89
2022/06/18 09:39:16;;;;;;;1.17;0.50;;;;;;;;;;5015868;28;20029;-89
2022/06/18 09:41:56;;;;;;;2.42;0.50;;;;;;;;;;4997634;28;20038;-91
2022/06/18 09:44:30;;;;;;;2.20;0.50;;;;;;;;;;5020468;28;20045;-90
2022/06/18 09:47:06;;;;;;;1.23;0.60;;;;;;;;;;5015433;28;20037;-88
2022/06/18 09:49:32;;;;;;;1.83;0.65;;;;;;;;;;5016682;28;20100;-89
2022/06/18 09:52:05;;;;;;;1.55;0.40;;;;;;;;;;5003319;28;20047;-89
2022/06/18 09:54:36;;;;;;;1.23;0.50;;;;;;;;;;5015874;28;20121;-90
2022/06/18 09:57:04;;;;;;;1.50;0.77;;;;;;;;;;5001551;28;20080;-89
2022/06/18 09:59:39;;;;;;;1.63;0.47;;;;;;;;;;5001832;28;20040;-89
2022/06/18 10:02:15;;;;;;;;;;;;;;;;;;5007155;28;20117;-88
2022/06/18 10:07:26;;;;;;;2.63;0.68;;;;;;;;;;5022432;28;19962;-89
2022/06/18 10:09:54;;;;;;;1.60;0.60;;;;;;;;;;5012270;28;20044;-92
2022/06/18 10:12:26;;;;;;;2.78;0.70;;;;;;;;;;5011843;28;20488;-93
2022/06/18 10:14:53;;;;;;;1.50;0.60;;;;;;;;;;5021322;28;20567;-91
2022/06/18 10:17:53;;;;;;;2.00;0.80;;;;;;;;;;4997208;28;20586;-92
2022/06/18 10:20:36;;;;;;;1.85;0.60;;;;;;;;;;5015187;28;20041;-92
2022/06/18 10:23:13;;;;;;;2.08;0.68;;;;;;;;;;5020039;28;20037;-91
2022/06/18 10:26:05;;;;;;;2.50;0.60;;;;;;;;;;5012433;28;20068;-91
2022/06/18 10:29:01;;;;;;;1.40;0.68;;;;;;;;;;5019179;28;20127;-90
2022/06/18 10:31:56;;;;;;;1.50;0.60;;;;;;;;;;5021550;28;20068;-90
2022/06/18 10:34:28;;;;;;;1.55;0.68;;;;;;;;;;5027259;28;20128;-91
2022/06/18 10:37:08;;;;;;;1.95;0.65;;;;;;;;;;5037846;28;20443;-89
2022/06/18 10:39:52;;;;;;;1.63;0.60;;;;;;;;;;5020335;28;20052;-91
2022/06/18 10:42:45;;;;;;;1.65;0.70;;;;;;;;;;5036465;28;20422;-90
2022/06/18 10:45:40;;;;;;;1.83;0.60;;;;;;;;;;5009047;28;20152;-90
2022/06/18 10:48:10;;;;;;;1.00;0.50;;;;;;;;;;5005256;28;20102;-91
2022/06/18 10:50:56;;;;;;;1.42;0.55;;;;;;;;;;4991798;28;20131;-91
2022/06/18 10:53:25;;;;;;;1.05;0.50;;;;;;;;;;5015214;28;20064;-90
2022/06/18 10:56:01;;;;;;;1.88;0.70;;;;;;;;;;5007069;28;20524;-91
2022/06/18 10:58:27;;;;;;;1.02;0.43;;;;;;;;;;5021714;28;20389;-90
2022/06/18 11:00:58;;;;;;;0.90;0.50;;;;;;;;;;5001508;28;20039;-90
2022/06/18 11:03:33;;;;;;;1.73;0.63;;;;;;;;;;4997108;28;20600;-90
2022/06/18 11:06:03;;;;;;;2.50;0.60;;;;;;;;;;5006155;28;20033;-90
2022/06/18 11:08:30;;;;;;;1.40;0.55;;;;;;;;;;5018043;28;20511;-91
2022/06/18 11:11:09;;;;;;;2.90;0.80;;;;;;;;;;4999218;28;20041;-91
2022/06/18 11:13:39;;;;;;;1.75;0.50;;;;;;;;;;5020948;28;20107;-90
2022/06/18 11:16:41;;;;;;;1.50;0.60;;;;;;;;;;5018090;28;20097;-91
2022/06/18 11:19:15;;;;;;;2.05;0.70;;;;;;;;;;4958984;28;20073;-90
2022/06/18 11:21:44;;;;;;;2.15;0.70;;;;;;;;;;4997419;28;20088;-91
2022/06/18 11:24:15;;;;;;;2.35;0.88;;;;;;;;;;5020542;28;20026;-91
2022/06/18 11:26:43;;;;;;;2.88;0.65;;;;;;;;;;5016943;28;20052;-89
2022/06/18 11:29:18;;;;;;;2.63;0.70;;;;;;;;;;4993979;28;20046;-90
2022/06/18 11:31:45;;;;;;;1.52;0.73;;;;;;;;;;5008404;28;20060;-90
2022/06/18 11:34:42;;;;;;;1.40;0.63;;;;;;;;;;5001324;28;20052;-90
2022/06/18 11:37:17;;;;;;;4.88;1.00;;;;;;;;;;4991718;28;20041;-90
2022/06/18 11:39:53;;;;;;;2.60;1.30;;;;;;;;;;5013237;28;20119;-90
2022/06/18 11:42:23;;;;;;;2.03;0.70;;;;;;;;;;5003450;28;20059;-90
2022/06/18 11:44:56;;;;;;;1.77;0.80;;;;;;;;;;5015955;28;20041;-89
2022/06/18 11:47:27;;;;;;;2.30;0.90;;;;;;;;;;5017543;28;20051;-89
2022/06/18 11:49:57;;;;;;;4.10;1.00;;;;;;;;;;5022545;28;20041;-91
2022/06/18 11:52:48;;;;;;;2.08;0.77;;;;;;;;;;5009203;28;20046;-90
2022/06/18 11:55:43;;;;;;;2.78;0.93;;;;;;;;;;5029967;28;20033;-92
2022/06/18 11:58:19;;;;;;;2.97;1.00;;;;;;;;;;4968197;28;20042;-91
2022/06/18 12:01:14;;;;;;;4.22;1.05;;;;;;;;;;4986455;28;20049;-89
2022/06/18 12:03:45;;;;;;;4.40;1.30;;;;;;;;;;4960923;28;20038;-91
2022/06/18 12:06:34;;;;;;;2.63;1.10;;;;;;;;;;4975145;28;20030;-89
2022/06/18 12:08:59;;;;;;;2.30;0.80;;;;;;;;;;4962966;28;20033;-90
2022/06/18 12:11:38;;;;;;;2.70;1.27;;;;;;;;;;4979012;28;20037;-88
2022/06/18 12:14:32;;;;;;;4.18;1.17;;;;;;;;;;4975558;28;20580;-92
2022/06/18 12:17:05;;;;;;;2.90;1.25;;;;;;;;;;4969700;28;20464;-90
2022/06/18 12:19:48;;;;;;;6.95;1.60;;;;;;;;;;5002664;28;20038;-90
2022/06/18 12:22:37;;;;;;;3.17;1.23;;;;;;;;;;4986724;28;20038;-91
2022/06/18 12:25:35;;;;;;;3.13;0.90;;;;;;;;;;4986793;28;20044;-93
2022/06/18 12:28:10;;;;;;;3.95;1.20;;;;;;;;;;4966261;28;20042;-88
2022/06/18 12:30:39;;;;;;;2.60;0.95;;;;;;;;;;4975565;28;20038;-92
2022/06/18 12:33:09;;;;;;;4.75;1.00;;;;;;;;;;4965031;28;20073;-89
2022/06/18 12:35:44;;;;;;;4.32;1.35;;;;;;;;;;5013974;28;20082;-89
2022/06/18 12:38:21;;;;;;;4.10;1.00;;;;;;;;;;5018587;28;20041;-91
2022/06/18 12:41:16;;;;;;;4.25;1.00;;;;;;;;;;5036661;28;20049;-90
2022/06/18 12:43:52;;;;;;;2.88;0.90;;;;;;;;;;5012877;28;20034;-92
2022/06/18 12:46:41;;;;;;;6.67;1.50;;;;;;;;;;5000227;28;20073;-89
2022/06/18 12:49:08;;;;;;;3.65;1.00;;;;;;;;;;5008172;28;20037;-89
2022/06/18 12:51:59;;;;;;;3.35;0.95;;;;;;;;;;5031213;28;20161;-90
2022/06/18 12:54:48;;;;;;;6.30;1.63;;;;;;;;;;5003039;28;20555;-90
2022/06/18 12:57:34;;;;;;;3.25;1.40;;;;;;;;;;5007915;28;20034;-88
2022/06/18 13:00:14;;;;;;;4.15;1.15;;;;;;;;;;5035791;28;20037;-89
2022/06/18 13:02:51;;;;;;;4.00;1.30;;;;;;;;;;5004480;28;20033;-90
2022/06/18 13:05:43;;;;;;;4.93;1.02;;;;;;;;;;5023224;28;20520;-89
2022/06/18 13:08:28;;;;;;;3.13;1.40;;;;;;;;;;4997315;28;20117;-88
2022/06/18 13:11:16;;;;;;;6.18;1.40;;;;;;;;;;5004148;28;20403;-89
2022/06/18 13:13:52;;;;;;;6.65;1.27;;;;;;;;;;5003414;28;20038;-89
2022/06/18 13:16:31;;;;;;;4.32;1.10;;;;;;;;;;4997836;28;20420;-89
2022/06/18 13:19:13;;;;;;;4.47;1.50;;;;;;;;;;5012693;28;20029;-90
2022/06/18 13:21:39;;;;;;;7.30;1.75;;;;;;;;;;5019969;28;20091;-88
2022/06/18 13:30:33;;;;;;;2.27;1.07;;;;;;;;;;4978621;28;20149;-89
2022/06/18 13:33:15;;;;;;;4.22;1.50;;;;;;;;;;5012200;28;20447;-90
2022/06/18 13:35:46;;;;;;;4.60;1.25;;;;;;;;;;5019536;28;20041;-90
2022/06/18 13:38:32;;;;;;;2.33;0.88;;;;;;;;;;5039990;28;20431;-89
2022/06/18 13:41:03;;;;;;;3.97;1.00;;;;;;;;;;5001733;28;20571;-90
2022/06/18 13:43:43;;;;;;;4.35;1.15;;;;;;;;;;5020215;28;20444;-89
2022/06/18 13:46:33;;;;;;;5.97;1.58;;;;;;;;;;5027958;28;20037;-91
2022/06/18 13:48:59;;;;;;;3.20;1.30;;;;;;;;;;5005639;28;20041;-88
2022/06/18 13:51:31;;;;;;;6.30;1.30;;;;;;;;;;5036716;28;20056;-89
2022/06/18 13:54:05;;;;;;;3.78;1.25;;;;;;;;;;5011940;28;20041;-90
2022/06/18 13:56:30;;;;;;;5.30;1.63;;;;;;;;;;4999380;28;20571;-91
2022/06/18 13:58:59;;;;;;;4.22;1.48;;;;;;;;;;5011839;28;20034;-90
2022/06/18 14:01:25;;;;;;;4.57;1.17;;;;;;;;;;4998052;28;20038;-88
2022/06/18 14:04:05;;;;;;;4.85;1.55;;;;;;;;;;5016577;28;20037;-86
2022/06/18 14:06:31;;;;;;;4.60;1.27;;;;;;;;;;5003872;28;20397;-89
2022/06/18 14:09:05;;;;;;;5.32;1.27;;;;;;;;;;5007523;28;20032;-90
2022/06/18 14:11:33;;;;;;;3.70;1.30;;;;;;;;;;5023073;28;20537;-90
2022/06/18 14:14:01;;;;;;;4.43;1.52;;;;;;;;;;5017554;28;20153;-89
2022/06/18 14:16:59;;;;;;;6.05;1.27;;;;;;;;;;5022316;28;20033;-88
2022/06/18 14:19:34;;;;;;;3.05;1.33;;;;;;;;;;5009798;28;20607;-88
2022/06/18 14:22:14;;;;;;;3.70;1.20;;;;;;;;;;5000232;28;20033;-89
2022/06/18 14:24:47;;;;;;;5.65;1.40;;;;;;;;;;5019848;28;20705;-91
2022/06/18 14:27:23;;;;;;;4.35;1.35;;;;;;;;;;5003396;28;20041;-90
2022/06/18 14:29:49;;;;;;;4.90;1.73;;;;;;;;;;5022360;28;20396;-91
2022/06/18 14:32:35;;;;;;;2.85;1.27;;;;;;;;;;5009595;28;20349;-90
2022/06/18 14:35:31;;;;;;;2.80;1.20;;;;;;;;;;5016831;28;20520;-91
2022/06/18 14:38:00;;;;;;;4.03;1.40;;;;;;;;;;5025703;28;20037;-91
2022/06/18 14:41:34;;;;;;;3.53;1.40;;;;;;;;;;5034925;28;20025;-91
2022/06/18 14:43:32;;;;;;;4.65;1.40;;;;;;;;;;5020010;28;20040;-90
2022/06/18 14:46:00;;;;;;;2.80;1.30;;;;;;;;;;5023092;28;20877;-91
2022/06/18 14:48:45;;;;;;;3.67;1.58;;;;;;;;;;5035888;28;20152;-90
2022/06/18 14:51:10;;;;;;;4.50;1.50;;;;;;;;;;5000593;28;20646;-89
2022/06/18 14:53:45;;;;;;;3.63;1.20;;;;;;;;;;5028094;28;20045;-89
2022/06/18 14:56:31;;;;;;;2.58;1.17;;;;;;;;;;5030689;28;20276;-89
2022/06/18 14:59:02;;;;;;;3.78;1.50;;;;;;;;;;5021387;28;20575;-91
2022/06/18 15:01:45;;;;;;;7.20;1.50;;;;;;;;;;5034413;28;20045;-90
2022/06/18 15:04:18;;;;;;;4.18;1.40;;;;;;;;;;5036813;28;20097;-90
2022/06/18 15:06:44;;;;;;;4.38;1.33;;;;;;;;;;5009945;28;20688;-89
2022/06/18 15:09:12;;;;;;;5.50;2.13;;;;;;;;;;5006531;28;20087;-89
2022/06/18 15:11:48;;;;;;;5.15;1.75;;;;;;;;;;5019355;28;20083;-89
2022/06/18 15:14:19;;;;;;;4.07;1.40;;;;;;;;;;5009141;28;20071;-88
2022/06/18 15:17:00;;;;;;;4.32;1.50;;;;;;;;;;5001173;28;20041;-90
2022/06/18 15:19:33;;;;;;;7.82;1.73;;;;;;;;;;5029198;28;20305;-90
2022/06/18 15:22:00;;;;;;;4.35;1.23;;;;;;;;;;5017308;28;20029;-90
2022/06/18 15:26:54;;;;;;;7.80;1.80;;;;;;;;;;5019265;28;20525;-89
2022/06/18 15:29:23;;;;;;;4.47;1.40;;;;;;;;;;5019461;28;20040;-88
2022/06/18 15:32:16;;;;;;;4.07;1.60;;;;;;;;;;5026269;28;20029;-90
2022/06/18 15:34:43;;;;;;;5.50;1.58;;;;;;;;;;5011166;28;20045;-92